createdAt,value
2022-10-18T00:00:43.585Z,97893.53
2022-10-18T00:05:46.948Z,97871.97
2022-10-18T00:10:50.089Z,97851.28
2022-10-18T00:15:59.317Z,97877.13
2022-10-18T00:21:07.494Z,97863.31
2022-10-18T00:26:27.356Z,97865.06
2022-10-18T00:31:36.442Z,97861.63
2022-10-18T00:36:38.666Z,97878.88
2022-10-18T00:41:40.920Z,97847.84
2022-10-18T00:46:49.322Z,97865.09
2022-10-18T00:51:58.469Z,97866.81
2022-10-18T00:57:01.489Z,97865.09
2022-10-18T01:02:04.705Z,97836.63
2022-10-18T01:07:25.693Z,97849.56
2022-10-18T01:12:43.057Z,97836.63
2022-10-18T01:17:59.045Z,97774.59
2022-10-18T01:23:12.083Z,97799.59
2022-10-18T01:28:23.457Z,97833.22
2022-10-18T01:33:52.383Z,97764.28
2022-10-18T01:38:59.062Z,97790.97
2022-10-18T01:44:04.954Z,97819.41
2022-10-18T01:49:07.695Z,97828.03
2022-10-18T01:54:13.251Z,97781.50
2022-10-18T01:59:53.180Z,97815.97
2022-10-18T02:05:04.611Z,97826.28
2022-10-18T02:15:24.172Z,97786.66
2022-10-18T02:20:29.214Z,97744.44
2022-10-18T02:25:35.413Z,97791.81
2022-10-18T02:30:45.727Z,97817.69
2022-10-18T02:35:52.567Z,97800.47
2022-10-18T02:40:55.483Z,97807.34
2022-10-18T02:45:57.758Z,97768.56
2022-10-18T02:50:59.958Z,97805.59
2022-10-18T02:56:03.719Z,97797.00
2022-10-18T03:01:06.021Z,97809.91
2022-10-18T03:06:08.134Z,97792.66
2022-10-18T03:11:10.472Z,97800.44
2022-10-18T03:16:13.969Z,97805.59
2022-10-18T03:21:16.295Z,97748.75
2022-10-18T03:26:18.358Z,97801.31
2022-10-18T03:31:22.774Z,97770.28
2022-10-18T03:36:24.934Z,97789.25
2022-10-18T03:41:27.217Z,97778.91
2022-10-18T03:46:29.319Z,97790.09
2022-10-18T03:51:31.573Z,97784.06
2022-10-18T03:56:33.855Z,97815.94
2022-10-18T04:01:36.054Z,97766.81
2022-10-18T04:06:38.176Z,97765.06
2022-10-18T04:11:40.550Z,97784.00
2022-10-18T04:16:42.698Z,97815.94
2022-10-18T04:21:44.945Z,97784.06
2022-10-18T04:26:47.223Z,97795.28
2022-10-18T04:31:49.595Z,97758.22
2022-10-18T04:36:51.944Z,97778.03
2022-10-18T04:41:54.294Z,97785.81
2022-10-18T04:46:56.577Z,97756.50
2022-10-18T04:51:58.743Z,97786.66
2022-10-18T04:57:00.943Z,97759.94
2022-10-18T05:07:06.988Z,97722.06
2022-10-18T05:12:09.438Z,97786.69
2022-10-18T05:17:12.045Z,97774.63
2022-10-18T05:22:14.428Z,97765.97
2022-10-18T05:27:16.591Z,97771.16
2022-10-18T05:32:18.930Z,97782.34
2022-10-18T05:37:26.099Z,97753.06
2022-10-18T05:42:30.999Z,97788.41
2022-10-18T05:52:36.072Z,97770.31
2022-10-18T05:57:38.215Z,97725.50
2022-10-18T06:02:40.445Z,97825.41
2022-10-18T06:07:43.149Z,97784.88
2022-10-18T06:12:45.530Z,97806.34
2022-10-18T06:17:47.862Z,97780.34
2022-10-18T06:22:53.574Z,97771.53
2022-10-18T06:27:55.782Z,97756.00
2022-10-18T06:33:01.601Z,97735.56
2022-10-18T06:38:04.147Z,97706.22
2022-10-18T06:43:20.155Z,97692.59
2022-10-18T06:53:44.373Z,97677.13
2022-10-18T06:58:50.994Z,97680.63
2022-10-18T07:03:54.366Z,97664.09
2022-10-18T07:08:57.341Z,97662.50
2022-10-18T07:14:03.316Z,97659.66
2022-10-18T07:19:05.662Z,97657.75
2022-10-18T07:24:07.862Z,97662.34
2022-10-18T07:29:12.328Z,97627.91
2022-10-18T07:34:14.733Z,97635.75
2022-10-18T07:39:17.086Z,97615.34
2022-10-18T07:44:19.229Z,97635.59
2022-10-18T07:49:21.737Z,97640.66
2022-10-18T07:54:24.134Z,97628.66
2022-10-18T07:59:26.343Z,97588.06
2022-10-18T08:04:28.541Z,97600.09
2022-10-18T08:09:30.984Z,97610.22
2022-10-18T08:14:33.054Z,97592.25
2022-10-18T08:19:35.255Z,97583.47
2022-10-18T08:24:37.681Z,97569.84
2022-10-18T08:29:39.821Z,97555.97
2022-10-18T08:34:42.379Z,97563.09
2022-10-18T08:39:44.537Z,97548.31
2022-10-18T08:44:52.051Z,97577.13
2022-10-18T08:50:03.199Z,97579.13
2022-10-18T08:55:18.848Z,97572.84
2022-10-18T09:00:23.870Z,97526.56
2022-10-18T09:05:44.908Z,97546.41
2022-10-18T09:10:56.127Z,97551.59
2022-10-18T09:16:19.888Z,97518.84
2022-10-18T09:21:50.029Z,97509.50
2022-10-18T09:27:05.663Z,97514.41
2022-10-18T09:32:18.321Z,97512.94
2022-10-18T09:37:23.374Z,97491.16
2022-10-18T09:42:58.654Z,97489.31
2022-10-18T09:48:22.544Z,97494.81
2022-10-18T09:53:40.968Z,97469.81
2022-10-18T09:58:44.843Z,97459.09
2022-10-18T10:03:47.427Z,97471.00
2022-10-18T10:08:55.570Z,97447.25
2022-10-18T10:14:08.065Z,97440.66
2022-10-18T10:19:18.781Z,97423.78
2022-10-18T10:24:31.214Z,97433.31
2022-10-18T10:29:45.884Z,97429.25
2022-10-18T10:34:50.238Z,97401.88
2022-10-18T10:40:21.260Z,97410.19
2022-10-18T10:45:29.742Z,97381.63
2022-10-18T10:55:39.398Z,97389.88
2022-10-18T11:00:45.233Z,97356.06
2022-10-18T11:05:50.362Z,97337.09
2022-10-18T11:11:07.118Z,97354.34
2022-10-18T11:16:25.095Z,97365.63
2022-10-18T11:21:31.114Z,97362.84
2022-10-18T11:27:00.847Z,97347.19
2022-10-18T11:32:37.717Z,97332.44
2022-10-18T11:38:06.368Z,97352.16
2022-10-18T11:43:30.272Z,97339.44
2022-10-18T11:49:10.766Z,97300.97
2022-10-18T11:54:16.058Z,97332.69
2022-10-18T11:59:40.093Z,97318.13
2022-10-18T12:05:22.155Z,97304.16
2022-10-18T12:10:31.538Z,97282.44
2022-10-18T12:15:44.650Z,97291.88
2022-10-18T12:20:50.634Z,97292.63
2022-10-18T12:25:57.291Z,97274.63
2022-10-18T12:31:15.051Z,97258.03
2022-10-18T12:36:38.646Z,97286.72
2022-10-18T12:41:40.926Z,97283.19
2022-10-18T12:46:54.938Z,97266.13
2022-10-18T12:52:03.730Z,97262.66
2022-10-18T12:57:18.302Z,97238.75
2022-10-18T13:02:25.216Z,97250.09
2022-10-18T13:07:41.194Z,97231.75
2022-10-18T13:13:38.283Z,97231.94
2022-10-18T13:19:16.889Z,97239.72
2022-10-18T13:24:44.498Z,97205.88
2022-10-18T13:30:11.906Z,97219.88
2022-10-18T13:35:49.982Z,97244.38
2022-10-18T13:41:04.425Z,97228.06
2022-10-18T13:46:06.916Z,97222.50
2022-10-18T13:51:41.329Z,97217.75
2022-10-18T13:57:17.755Z,97187.91
2022-10-18T14:02:51.444Z,97221.06
2022-10-18T14:08:10.294Z,97189.41
2022-10-18T14:13:22.954Z,97193.72
2022-10-18T14:18:36.799Z,97214.06
2022-10-18T14:23:44.912Z,97210.31
2022-10-18T14:29:16.356Z,97183.91
2022-10-18T14:34:19.012Z,97197.00
2022-10-18T14:39:26.794Z,97201.31
2022-10-18T14:44:31.834Z,97196.34
2022-10-18T14:49:34.610Z,97160.69
2022-10-18T14:54:38.832Z,97142.75
2022-10-18T14:59:57.514Z,97191.84
2022-10-18T15:05:10.939Z,97151.88
2022-10-18T15:10:18.341Z,97193.78
2022-10-18T15:15:27.102Z,97183.63
2022-10-18T15:20:36.066Z,97162.75
2022-10-18T15:25:39.223Z,97154.81
2022-10-18T15:30:43.506Z,97157.22
2022-10-18T15:35:46.780Z,97191.13
2022-10-18T15:40:50.811Z,97185.22
2022-10-18T15:45:58.916Z,97193.69
2022-10-18T15:51:28.350Z,97185.38
2022-10-18T15:56:37.942Z,97177.03
2022-10-18T16:01:45.111Z,97168.47
2022-10-18T16:06:47.644Z,97163.47
2022-10-18T16:11:55.796Z,97218.00
2022-10-18T16:17:02.081Z,97171.66
2022-10-18T16:22:06.825Z,97226.91
2022-10-18T16:27:10.551Z,97201.50
2022-10-18T16:32:12.803Z,97211.13
2022-10-18T16:37:15.216Z,97202.50
2022-10-18T16:42:17.337Z,97188.25
2022-10-18T16:47:19.831Z,97195.56
2022-10-18T16:52:21.935Z,97182.00
2022-10-18T16:57:24.119Z,97209.25
2022-10-18T17:02:26.500Z,97189.88
2022-10-18T17:07:28.707Z,97201.31
2022-10-18T17:12:31.058Z,97191.03
2022-10-18T17:17:33.999Z,97225.31
2022-10-18T17:22:36.431Z,97174.56
2022-10-18T17:27:38.795Z,97212.81
2022-10-18T17:32:44.553Z,97191.13
2022-10-18T17:37:52.176Z,97165.56
2022-10-18T17:42:54.720Z,97153.19
2022-10-18T17:47:57.131Z,97176.31
2022-10-18T17:52:59.339Z,97191.84
2022-10-18T17:58:01.869Z,97183.09
2022-10-18T18:03:04.754Z,97147.03
2022-10-18T18:08:07.356Z,97193.91
2022-10-18T18:13:09.611Z,97159.28
2022-10-18T18:18:11.849Z,97122.16
2022-10-18T18:23:14.462Z,97176.84
2022-10-18T18:28:16.912Z,97162.25
2022-10-18T18:33:19.120Z,97114.47
2022-10-18T18:38:21.307Z,97147.09
2022-10-18T18:43:23.751Z,97106.50
2022-10-18T18:48:27.616Z,97126.84
2022-10-18T18:53:30.479Z,97124.31
2022-10-18T18:58:34.372Z,97104.63
2022-10-18T19:03:38.623Z,97109.53
2022-10-18T19:08:41.158Z,97128.72
2022-10-18T19:13:43.412Z,97121.75
2022-10-18T19:19:01.309Z,97129.00
2022-10-18T19:24:04.889Z,97135.97
2022-10-18T19:29:22.346Z,97108.50
2022-10-18T19:34:26.314Z,97098.50
2022-10-18T19:39:31.105Z,97124.44
2022-10-18T19:44:36.177Z,97121.97
2022-10-18T19:49:43.140Z,97074.91
2022-10-18T19:54:45.431Z,97102.31
2022-10-18T19:59:47.603Z,97079.63
2022-10-18T20:04:49.696Z,97096.78
2022-10-18T20:09:51.926Z,97102.00
2022-10-18T20:14:54.184Z,97097.94
2022-10-18T20:19:56.386Z,97032.19
2022-10-18T20:24:58.558Z,97063.28
2022-10-18T20:30:01.005Z,97055.72
2022-10-18T20:35:03.254Z,97044.69
2022-10-18T20:40:05.834Z,97053.34
2022-10-18T20:45:09.749Z,97067.91
2022-10-18T20:50:12.030Z,97052.16
2022-10-18T20:55:14.274Z,97058.63
2022-10-18T21:00:16.402Z,97033.66
2022-10-18T21:05:18.707Z,97009.16
2022-10-18T21:10:20.978Z,96998.19
2022-10-18T21:15:23.207Z,97040.72
2022-10-18T21:20:25.467Z,97031.03
2022-10-18T21:25:27.644Z,96991.22
2022-10-18T21:30:29.744Z,96999.84
2022-10-18T21:35:35.798Z,96985.44
2022-10-18T21:40:39.974Z,96958.03
2022-10-18T21:45:42.209Z,96959.19
2022-10-18T21:50:44.501Z,96975.00
2022-10-18T21:55:48.464Z,96975.88
2022-10-18T22:00:50.608Z,96967.31
2022-10-18T22:06:03.711Z,96901.53
2022-10-18T22:11:06.560Z,96951.34
2022-10-18T22:16:11.187Z,96963.56
2022-10-18T22:21:15.332Z,96897.75
2022-10-18T22:26:25.327Z,96922.41
2022-10-18T22:31:31.125Z,96913.75
2022-10-18T22:36:34.350Z,96907.97
2022-10-18T22:41:37.081Z,96872.78
2022-10-18T22:46:40.492Z,96917.78
2022-10-18T22:51:42.804Z,96878.66
2022-10-18T22:56:45.210Z,96869.19
2022-10-18T23:01:47.465Z,96859.13
2022-10-18T23:06:49.630Z,96896.28
2022-10-18T23:11:53.208Z,96894.31
2022-10-18T23:16:55.558Z,96869.59
2022-10-18T23:21:57.657Z,96857.84
2022-10-18T23:26:59.733Z,96858.75
2022-10-18T23:32:02.046Z,96852.00
2022-10-18T23:37:04.360Z,96854.53
2022-10-18T23:42:06.533Z,96867.25
2022-10-18T23:47:08.631Z,96849.16
2022-10-18T23:52:11.009Z,96827.81
2022-10-18T23:57:13.354Z,96844.13
